createdAt,value
2023-05-01T00:00:57.190Z,389.00
2023-05-01T00:01:57.183Z,389.00
2023-05-01T00:02:57.328Z,390.00
2023-05-01T00:03:57.336Z,389.00
2023-05-01T00:04:57.201Z,389.00
2023-05-01T00:05:57.257Z,388.00
2023-05-01T00:06:57.205Z,388.00
2023-05-01T00:07:57.216Z,385.00
2023-05-01T00:08:57.215Z,387.00
2023-05-01T00:09:57.528Z,386.00
2023-05-01T00:10:57.238Z,389.00
2023-05-01T00:11:57.224Z,387.00
2023-05-01T00:12:57.229Z,388.00
2023-05-01T00:13:57.232Z,388.00
2023-05-01T00:14:57.271Z,387.00
2023-05-01T00:15:57.309Z,387.00
2023-05-01T00:16:57.296Z,387.00
2023-05-01T00:17:57.301Z,387.00
2023-05-01T00:18:57.266Z,386.00
2023-05-01T00:19:57.623Z,385.00
2023-05-01T00:20:57.290Z,389.00
2023-05-01T00:21:57.294Z,390.00
2023-05-01T00:22:57.310Z,389.00
2023-05-01T00:23:57.319Z,391.00
2023-05-01T00:24:57.355Z,391.00
2023-05-01T00:25:57.353Z,391.00
2023-05-01T00:26:57.457Z,390.00
2023-05-01T00:27:57.525Z,391.00
2023-05-01T00:28:57.600Z,391.00
2023-05-01T00:29:58.031Z,391.00
2023-05-01T00:30:57.700Z,390.00
2023-05-01T00:31:57.751Z,389.00
2023-05-01T00:32:57.802Z,387.00
2023-05-01T00:33:57.778Z,387.00
2023-05-01T00:34:57.826Z,385.00
2023-05-01T00:35:57.832Z,386.00
2023-05-01T00:36:57.883Z,387.00
2023-05-01T00:37:57.948Z,388.00
2023-05-01T00:38:58.043Z,390.00
2023-05-01T00:39:58.368Z,392.00
2023-05-01T00:40:58.162Z,394.00
2023-05-01T00:41:58.147Z,395.00
2023-05-01T00:42:58.150Z,395.00
2023-05-01T00:43:58.165Z,396.00
2023-05-01T00:44:58.184Z,397.00
2023-05-01T00:45:58.263Z,397.00
2023-05-01T00:46:58.176Z,396.00
2023-05-01T00:47:58.220Z,396.00
2023-05-01T00:48:58.165Z,396.00
2023-05-01T00:49:58.325Z,394.00
2023-05-01T00:50:58.169Z,392.00
2023-05-01T00:51:58.160Z,391.00
2023-05-01T00:52:58.177Z,385.00
2023-05-01T00:53:58.155Z,384.00
2023-05-01T00:54:58.162Z,386.00
2023-05-01T00:55:58.163Z,387.00
2023-05-01T00:56:58.180Z,387.00
2023-05-01T00:57:58.175Z,386.00
2023-05-01T00:58:58.173Z,385.00
2023-05-01T00:59:58.301Z,384.00
2023-05-01T01:00:58.261Z,382.00
2023-05-01T01:01:58.177Z,382.00
2023-05-01T01:02:58.179Z,383.00
2023-05-01T01:03:58.179Z,381.00
2023-05-01T01:04:58.378Z,384.00
2023-05-01T01:05:58.208Z,386.00
2023-05-01T01:06:58.150Z,388.00
2023-05-01T01:07:58.177Z,385.00
2023-05-01T01:08:58.145Z,386.00
2023-05-01T01:09:58.378Z,386.00
2023-05-01T01:10:58.214Z,385.00
2023-05-01T01:11:58.403Z,384.00
2023-05-01T01:12:58.359Z,385.00
2023-05-01T01:13:58.438Z,384.00
2023-05-01T01:14:58.580Z,383.00
2023-05-01T01:15:58.634Z,382.00
2023-05-01T01:16:58.741Z,381.00
2023-05-01T01:17:58.749Z,380.00
2023-05-01T01:18:58.771Z,379.00
2023-05-01T01:19:58.789Z,381.00
2023-05-01T01:20:58.792Z,383.00
2023-05-01T01:21:58.788Z,385.00
2023-05-01T01:22:58.825Z,386.00
2023-05-01T01:23:58.871Z,385.00
2023-05-01T01:24:58.973Z,381.00
2023-05-01T01:25:58.994Z,382.00
2023-05-01T01:26:59.033Z,383.00
2023-05-01T01:27:59.008Z,383.00
2023-05-01T01:28:59.016Z,381.00
2023-05-01T01:29:59.100Z,385.00
2023-05-01T01:30:59.106Z,384.00
2023-05-01T01:31:59.153Z,387.00
2023-05-01T01:32:59.238Z,386.00
2023-05-01T01:33:59.309Z,386.00
2023-05-01T01:34:59.401Z,386.00
2023-05-01T01:35:59.497Z,387.00
2023-05-01T01:36:59.517Z,389.00
2023-05-01T01:37:59.540Z,389.00
2023-05-01T01:38:59.533Z,390.00
2023-05-01T01:39:59.528Z,392.00
2023-05-01T01:40:59.617Z,390.00
2023-05-01T01:41:59.589Z,390.00
2023-05-01T01:42:59.574Z,390.00
2023-05-01T01:43:59.608Z,392.00
2023-05-01T01:44:59.618Z,392.00
2023-05-01T01:45:59.670Z,392.00
2023-05-01T01:46:59.662Z,392.00
2023-05-01T01:47:59.729Z,392.00
2023-05-01T01:48:59.717Z,392.00
2023-05-01T01:49:59.818Z,394.00
2023-05-01T01:50:59.975Z,395.00
2023-05-01T01:52:00.012Z,394.00
2023-05-01T01:53:00.118Z,393.00
2023-05-01T01:54:00.189Z,394.00
2023-05-01T01:55:00.266Z,395.00
2023-05-01T01:56:02.391Z,394.00
2023-05-01T01:57:00.277Z,394.00
2023-05-01T01:58:00.259Z,393.00
2023-05-01T01:59:00.260Z,393.00
2023-05-01T02:00:00.261Z,393.00
2023-05-01T02:01:00.292Z,392.00
2023-05-01T02:02:00.379Z,391.00
2023-05-01T02:03:00.308Z,390.00
2023-05-01T02:04:00.406Z,389.00
2023-05-01T02:05:00.279Z,388.00
2023-05-01T02:06:00.296Z,388.00
2023-05-01T02:07:00.276Z,388.00
2023-05-01T02:08:00.287Z,389.00
2023-05-01T02:09:00.288Z,388.00
2023-05-01T02:10:00.328Z,391.00
2023-05-01T02:11:01.745Z,391.00
2023-05-01T02:12:00.295Z,389.00
2023-05-01T02:13:00.305Z,390.00
2023-05-01T02:14:00.291Z,388.00
2023-05-01T02:15:00.297Z,388.00
2023-05-01T02:16:00.304Z,389.00
2023-05-01T02:17:00.319Z,387.00
2023-05-01T02:18:00.350Z,386.00
2023-05-01T02:19:00.307Z,384.00
2023-05-01T02:20:00.309Z,384.00
2023-05-01T02:21:00.357Z,386.00
2023-05-01T02:22:00.329Z,387.00
2023-05-01T02:23:00.328Z,388.00
2023-05-01T02:24:00.336Z,386.00
2023-05-01T02:25:00.331Z,386.00
2023-05-01T02:26:00.361Z,386.00
2023-05-01T02:27:00.351Z,385.00
2023-05-01T02:28:00.388Z,385.00
2023-05-01T02:29:00.401Z,385.00
2023-05-01T02:30:00.411Z,386.00
2023-05-01T02:31:00.427Z,386.00
2023-05-01T02:32:00.525Z,389.00
2023-05-01T02:33:00.479Z,387.00
2023-05-01T02:34:00.485Z,387.00
2023-05-01T02:35:00.593Z,383.00
2023-05-01T02:36:00.660Z,383.00
2023-05-01T02:37:00.640Z,383.00
2023-05-01T02:38:00.681Z,385.00
2023-05-01T02:39:00.690Z,384.00
2023-05-01T02:40:00.709Z,386.00
2023-05-01T02:41:00.748Z,386.00
2023-05-01T02:42:00.740Z,388.00
2023-05-01T02:43:00.767Z,388.00
2023-05-01T02:44:00.765Z,390.00
2023-05-01T02:45:00.774Z,392.00
2023-05-01T02:46:00.849Z,393.00
2023-05-01T02:47:00.884Z,394.00
2023-05-01T02:48:00.867Z,391.00
2023-05-01T02:49:00.856Z,391.00
2023-05-01T02:50:00.856Z,388.00
2023-05-01T02:51:00.874Z,388.00
2023-05-01T02:52:00.892Z,387.00
2023-05-01T02:53:00.955Z,387.00
2023-05-01T02:54:01.057Z,387.00
2023-05-01T02:55:01.071Z,385.00
2023-05-01T02:56:01.111Z,385.00
2023-05-01T02:57:01.129Z,384.00
2023-05-01T02:58:01.160Z,383.00
2023-05-01T02:59:01.170Z,381.00
2023-05-01T03:00:01.248Z,384.00
2023-05-01T03:01:01.360Z,385.00
2023-05-01T03:02:01.329Z,385.00
2023-05-01T03:03:01.412Z,385.00
2023-05-01T03:04:01.491Z,383.00
2023-05-01T03:05:01.494Z,381.00
2023-05-01T03:06:01.616Z,380.00
2023-05-01T03:07:01.635Z,379.00
2023-05-01T03:08:01.693Z,379.00
2023-05-01T03:09:01.739Z,378.00
2023-05-01T03:10:01.833Z,382.00
2023-05-01T03:11:01.891Z,380.00
2023-05-01T03:12:01.932Z,380.00
2023-05-01T03:13:02.032Z,378.00
2023-05-01T03:14:02.098Z,380.00
2023-05-01T03:15:02.157Z,381.00
2023-05-01T03:16:02.288Z,382.00
2023-05-01T03:17:02.297Z,381.00
2023-05-01T03:18:02.424Z,382.00
2023-05-01T03:19:02.451Z,382.00
2023-05-01T03:20:02.550Z,382.00
2023-05-01T03:21:02.601Z,381.00
2023-05-01T03:22:02.647Z,379.00
2023-05-01T03:23:02.719Z,378.00
2023-05-01T03:24:02.790Z,380.00
2023-05-01T03:25:02.881Z,380.00
2023-05-01T03:26:02.912Z,380.00
2023-05-01T03:27:02.974Z,378.00
2023-05-01T03:28:03.036Z,377.00
2023-05-01T03:29:03.091Z,379.00
2023-05-01T03:30:03.174Z,378.00
2023-05-01T03:31:03.216Z,376.00
2023-05-01T03:32:03.337Z,374.00
2023-05-01T03:33:03.365Z,372.00
2023-05-01T03:34:03.427Z,371.00
2023-05-01T03:35:03.554Z,371.00
2023-05-01T03:36:03.551Z,370.00
2023-05-01T03:37:03.564Z,371.00
2023-05-01T03:38:03.555Z,369.00
2023-05-01T03:39:03.578Z,369.00
2023-05-01T03:40:03.610Z,369.00
2023-05-01T03:41:03.616Z,371.00
2023-05-01T03:42:03.614Z,373.00
2023-05-01T03:43:03.623Z,373.00
2023-05-01T03:44:03.635Z,374.00
2023-05-01T03:45:03.650Z,372.00
2023-05-01T03:46:03.701Z,368.00
2023-05-01T03:47:03.677Z,368.00
2023-05-01T03:48:03.756Z,367.00
2023-05-01T03:49:03.710Z,368.00
2023-05-01T03:50:03.735Z,367.00
2023-05-01T03:51:03.742Z,368.00
2023-05-01T03:52:03.780Z,369.00
2023-05-01T03:53:03.827Z,372.00
2023-05-01T03:54:03.821Z,371.00
2023-05-01T03:55:03.834Z,371.00
2023-05-01T03:56:03.860Z,373.00
2023-05-01T03:57:03.891Z,374.00
2023-05-01T03:58:03.922Z,372.00
2023-05-01T03:59:03.917Z,373.00
2023-05-01T04:00:03.938Z,371.00
2023-05-01T04:01:03.974Z,369.00
2023-05-01T04:02:04.045Z,371.00
2023-05-01T04:03:04.166Z,373.00
2023-05-01T04:04:04.149Z,376.00
2023-05-01T04:05:04.076Z,373.00
2023-05-01T04:06:04.109Z,373.00
2023-05-01T04:07:04.092Z,372.00
2023-05-01T04:08:04.112Z,376.00
2023-05-01T04:09:04.130Z,373.00
2023-05-01T04:10:04.160Z,372.00
2023-05-01T04:11:04.192Z,373.00
2023-05-01T04:12:04.203Z,373.00
2023-05-01T04:13:04.232Z,372.00
2023-05-01T04:14:04.275Z,374.00
2023-05-01T04:15:04.312Z,373.00
2023-05-01T04:16:04.406Z,373.00
2023-05-01T04:17:04.367Z,374.00
2023-05-01T04:18:04.448Z,376.00
2023-05-01T04:19:04.392Z,377.00
2023-05-01T04:20:04.384Z,375.00
2023-05-01T04:21:04.419Z,377.00
2023-05-01T04:22:04.427Z,379.00
2023-05-01T04:23:04.424Z,379.00
2023-05-01T04:24:04.446Z,379.00
2023-05-01T04:25:04.496Z,379.00
2023-05-01T04:26:04.478Z,376.00
2023-05-01T04:27:04.495Z,377.00
2023-05-01T04:28:04.495Z,377.00
2023-05-01T04:29:04.507Z,373.00
2023-05-01T04:30:04.540Z,372.00
2023-05-01T04:31:04.588Z,373.00
2023-05-01T04:32:04.782Z,375.00
2023-05-01T04:33:04.594Z,374.00
2023-05-01T04:34:04.593Z,376.00
2023-05-01T04:35:04.676Z,378.00
2023-05-01T04:36:04.615Z,381.00
2023-05-01T04:37:04.620Z,381.00
2023-05-01T04:38:04.636Z,381.00
2023-05-01T04:39:04.659Z,379.00
2023-05-01T04:40:04.675Z,379.00
2023-05-01T04:41:04.687Z,379.00
2023-05-01T04:42:04.696Z,379.00
2023-05-01T04:43:04.706Z,379.00
2023-05-01T04:44:04.733Z,379.00
2023-05-01T04:45:04.736Z,381.00
2023-05-01T04:46:04.806Z,382.00
2023-05-01T04:47:04.809Z,383.00
2023-05-01T04:48:04.857Z,383.00
2023-05-01T04:49:04.808Z,382.00
2023-05-01T04:50:04.803Z,381.00
2023-05-01T04:51:04.813Z,383.00
2023-05-01T04:52:04.846Z,381.00
2023-05-01T04:53:04.835Z,380.00
2023-05-01T04:54:04.858Z,379.00
2023-05-01T04:55:04.872Z,381.00
2023-05-01T04:56:04.882Z,380.00
2023-05-01T04:57:04.876Z,381.00
2023-05-01T04:58:04.882Z,381.00
2023-05-01T04:59:04.878Z,382.00
2023-05-01T05:00:04.880Z,382.00
2023-05-01T05:01:04.920Z,382.00
2023-05-01T05:02:04.954Z,384.00
2023-05-01T05:03:04.994Z,384.00
2023-05-01T05:04:05.062Z,381.00
2023-05-01T05:05:04.943Z,380.00
2023-05-01T05:06:04.976Z,381.00
2023-05-01T05:07:05.004Z,379.00
2023-05-01T05:08:04.988Z,381.00
2023-05-01T05:09:05.013Z,381.00
2023-05-01T05:10:05.022Z,380.00
2023-05-01T05:11:05.035Z,379.00
2023-05-01T05:12:05.078Z,378.00
2023-05-01T05:13:05.106Z,378.00
2023-05-01T05:14:05.110Z,378.00
2023-05-01T05:15:05.138Z,378.00
2023-05-01T05:16:05.252Z,377.00
2023-05-01T05:17:05.210Z,375.00
2023-05-01T05:18:05.255Z,375.00
2023-05-01T05:19:05.290Z,379.00
2023-05-01T05:20:05.336Z,379.00
2023-05-01T05:21:05.388Z,378.00
2023-05-01T05:22:05.422Z,377.00
2023-05-01T05:23:06.401Z,376.00
2023-05-01T05:24:05.502Z,378.00
2023-05-01T05:25:05.540Z,380.00
2023-05-01T05:26:05.603Z,381.00
2023-05-01T05:27:05.617Z,383.00
2023-05-01T05:28:05.667Z,382.00
2023-05-01T05:29:05.687Z,382.00
2023-05-01T05:30:05.712Z,381.00
2023-05-01T05:31:05.717Z,380.00
2023-05-01T05:32:05.808Z,381.00
2023-05-01T05:33:05.818Z,383.00
2023-05-01T05:34:05.773Z,382.00
2023-05-01T05:35:05.803Z,382.00
2023-05-01T05:36:05.805Z,378.00
2023-05-01T05:37:05.825Z,379.00
2023-05-01T05:38:05.834Z,376.00
2023-05-01T05:39:05.831Z,379.00
2023-05-01T05:40:05.865Z,379.00
2023-05-01T05:41:05.854Z,379.00
2023-05-01T05:42:05.894Z,381.00
2023-05-01T05:43:05.911Z,382.00
2023-05-01T05:44:05.905Z,380.00
2023-05-01T05:45:05.902Z,379.00
2023-05-01T05:46:06.001Z,377.00
2023-05-01T05:47:05.983Z,379.00
2023-05-01T05:48:06.021Z,378.00
2023-05-01T05:49:06.011Z,379.00
2023-05-01T05:50:06.008Z,378.00
2023-05-01T05:51:06.027Z,379.00
2023-05-01T05:52:06.065Z,380.00
2023-05-01T05:53:06.063Z,378.00
2023-05-01T05:54:06.081Z,375.00
2023-05-01T05:55:06.075Z,377.00
2023-05-01T05:56:06.158Z,377.00
2023-05-01T05:57:06.154Z,377.00
2023-05-01T05:58:06.155Z,376.00
2023-05-01T05:59:06.163Z,377.00
2023-05-01T06:00:06.219Z,376.00
2023-05-01T06:01:06.234Z,375.00
2023-05-01T06:02:06.351Z,373.00
2023-05-01T06:03:06.348Z,374.00
2023-05-01T06:04:06.293Z,374.00
2023-05-01T06:05:06.350Z,374.00
2023-05-01T06:06:06.474Z,375.00
2023-05-01T06:07:06.342Z,374.00
2023-05-01T06:08:06.333Z,375.00
2023-05-01T06:09:06.376Z,375.00
2023-05-01T06:10:06.393Z,374.00
2023-05-01T06:11:06.441Z,375.00
2023-05-01T06:12:06.459Z,374.00
2023-05-01T06:13:13.381Z,377.00
2023-05-01T06:14:07.550Z,376.00
2023-05-01T06:15:06.523Z,376.00
2023-05-01T06:16:06.538Z,374.00
2023-05-01T06:17:06.560Z,375.00
2023-05-01T06:18:06.623Z,373.00
2023-05-01T06:19:06.602Z,376.00
2023-05-01T06:20:06.619Z,377.00
2023-05-01T06:21:06.607Z,377.00
2023-05-01T06:22:06.680Z,375.00
2023-05-01T06:23:06.669Z,374.00
2023-05-01T06:24:06.691Z,375.00
2023-05-01T06:25:06.678Z,376.00
2023-05-01T06:26:06.689Z,377.00
2023-05-01T06:27:06.730Z,377.00
2023-05-01T06:28:06.729Z,375.00
2023-05-01T06:29:06.754Z,376.00
2023-05-01T06:30:06.774Z,377.00
2023-05-01T06:31:06.829Z,377.00
2023-05-01T06:32:06.838Z,376.00
2023-05-01T06:33:06.905Z,377.00
2023-05-01T06:34:06.939Z,375.00
2023-05-01T06:35:06.992Z,373.00
2023-05-01T06:36:07.030Z,373.00
2023-05-01T06:37:07.079Z,373.00
2023-05-01T06:38:07.134Z,373.00
2023-05-01T06:39:07.189Z,372.00
2023-05-01T06:40:07.237Z,371.00
2023-05-01T06:41:07.285Z,370.00
2023-05-01T06:42:07.372Z,368.00
2023-05-01T06:43:07.393Z,368.00
2023-05-01T06:44:07.460Z,369.00
2023-05-01T06:45:07.486Z,370.00
2023-05-01T06:46:07.523Z,370.00
2023-05-01T06:47:07.643Z,371.00
2023-05-01T06:48:07.675Z,370.00
2023-05-01T06:49:07.652Z,370.00
2023-05-01T06:50:07.710Z,370.00
2023-05-01T06:51:07.766Z,370.00
2023-05-01T06:52:07.774Z,370.00
2023-05-01T06:53:07.836Z,371.00
2023-05-01T06:54:07.883Z,371.00
2023-05-01T06:55:07.947Z,370.00
2023-05-01T06:56:07.932Z,370.00
2023-05-01T06:57:07.967Z,370.00
2023-05-01T06:58:21.951Z,373.00
2023-05-01T06:59:09.011Z,373.00
2023-05-01T07:00:07.996Z,374.00
2023-05-01T07:01:08.029Z,374.00
2023-05-01T07:02:08.083Z,374.00
2023-05-01T07:03:08.052Z,373.00
2023-05-01T07:04:08.075Z,374.00
2023-05-01T07:05:08.056Z,378.00
2023-05-01T07:06:08.125Z,378.00
2023-05-01T07:07:08.073Z,377.00
2023-05-01T07:08:08.091Z,376.00
2023-05-01T07:09:08.085Z,377.00
2023-05-01T07:10:08.099Z,377.00
2023-05-01T07:11:08.133Z,376.00
2023-05-01T07:12:08.122Z,376.00
2023-05-01T07:13:08.143Z,375.00
2023-05-01T07:14:08.134Z,376.00
2023-05-01T07:15:08.181Z,377.00
2023-05-01T07:16:08.200Z,375.00
2023-05-01T07:17:08.194Z,374.00
2023-05-01T07:18:08.609Z,377.00
2023-05-01T07:19:08.234Z,377.00
2023-05-01T07:20:08.297Z,377.00
2023-05-01T07:21:08.287Z,375.00
2023-05-01T07:22:08.336Z,377.00
2023-05-01T07:23:08.363Z,378.00
2023-05-01T07:24:08.398Z,378.00
2023-05-01T07:25:08.472Z,378.00
2023-05-01T07:26:08.503Z,376.00
2023-05-01T07:27:08.538Z,377.00
2023-05-01T07:28:08.561Z,376.00
2023-05-01T07:29:08.597Z,376.00
2023-05-01T07:30:08.646Z,376.00
2023-05-01T07:31:08.666Z,376.00
2023-05-01T07:32:08.759Z,377.00
2023-05-01T07:33:08.774Z,374.00
2023-05-01T07:34:08.804Z,373.00
2023-05-01T07:35:08.811Z,373.00
2023-05-01T07:36:08.853Z,374.00
2023-05-01T07:37:08.893Z,374.00
2023-05-01T07:38:08.935Z,373.00
2023-05-01T07:39:08.997Z,372.00
2023-05-01T07:40:09.014Z,374.00
2023-05-01T07:41:09.067Z,375.00
2023-05-01T07:42:09.103Z,376.00
2023-05-01T07:43:09.125Z,373.00
2023-05-01T07:44:09.177Z,371.00
2023-05-01T07:45:09.203Z,372.00
2023-05-01T07:46:09.242Z,373.00
2023-05-01T07:47:09.299Z,373.00
2023-05-01T07:48:09.367Z,377.00
2023-05-01T07:49:09.307Z,377.00
2023-05-01T07:50:09.398Z,379.00
2023-05-01T07:51:09.327Z,378.00
2023-05-01T07:52:09.436Z,376.00
2023-05-01T07:53:09.353Z,376.00
2023-05-01T07:54:09.374Z,373.00
2023-05-01T07:55:09.383Z,373.00
2023-05-01T07:56:09.422Z,374.00
2023-05-01T07:57:09.390Z,374.00
2023-05-01T07:58:09.428Z,372.00
2023-05-01T07:59:09.408Z,371.00
2023-05-01T08:00:09.442Z,372.00
2023-05-01T08:01:09.423Z,372.00
2023-05-01T08:02:09.462Z,371.00
2023-05-01T08:03:09.634Z,371.00
2023-05-01T08:04:09.508Z,372.00
2023-05-01T08:05:09.485Z,372.00
2023-05-01T08:06:09.518Z,373.00
2023-05-01T08:07:09.494Z,375.00
2023-05-01T08:08:09.494Z,376.00
2023-05-01T08:09:09.507Z,377.00
2023-05-01T08:10:09.507Z,375.00
2023-05-01T08:11:09.510Z,372.00
2023-05-01T08:12:09.517Z,369.00
2023-05-01T08:13:09.529Z,370.00
2023-05-01T08:14:09.572Z,372.00
2023-05-01T08:15:09.542Z,371.00
2023-05-01T08:16:09.588Z,372.00
2023-05-01T08:17:09.575Z,374.00
2023-05-01T08:18:09.605Z,376.00
2023-05-01T08:19:09.566Z,374.00
2023-05-01T08:20:09.573Z,376.00
2023-05-01T08:21:09.579Z,375.00
2023-05-01T08:22:09.607Z,375.00
2023-05-01T08:23:09.593Z,374.00
2023-05-01T08:24:09.650Z,373.00
2023-05-01T08:25:09.609Z,372.00
2023-05-01T08:26:09.634Z,372.00
2023-05-01T08:27:09.663Z,370.00
2023-05-01T08:28:09.649Z,368.00
2023-05-01T08:29:09.672Z,367.00
2023-05-01T08:30:09.685Z,367.00
2023-05-01T08:31:09.700Z,366.00
2023-05-01T08:32:09.695Z,365.00
2023-05-01T08:33:09.713Z,367.00
2023-05-01T08:34:09.723Z,368.00
2023-05-01T08:35:09.718Z,366.00
2023-05-01T08:36:09.739Z,366.00
2023-05-01T08:37:09.755Z,366.00
2023-05-01T08:38:09.807Z,366.00
2023-05-01T08:39:09.816Z,365.00
2023-05-01T08:40:09.912Z,364.00
2023-05-01T08:41:09.893Z,366.00
2023-05-01T08:42:09.891Z,367.00
2023-05-01T08:43:09.916Z,368.00
2023-05-01T08:44:09.903Z,370.00
2023-05-01T08:45:09.936Z,372.00
2023-05-01T08:46:09.972Z,373.00
2023-05-01T08:47:10.100Z,372.00
2023-05-01T08:48:10.022Z,371.00
2023-05-01T08:49:09.971Z,373.00
2023-05-01T08:50:09.985Z,374.00
2023-05-01T08:51:09.990Z,375.00
2023-05-01T08:52:09.998Z,372.00
2023-05-01T08:53:10.000Z,372.00
2023-05-01T08:54:09.995Z,370.00
2023-05-01T08:55:10.021Z,371.00
2023-05-01T08:56:10.002Z,371.00
2023-05-01T08:57:10.541Z,369.00
2023-05-01T08:58:10.016Z,368.00
2023-05-01T08:59:10.025Z,368.00
2023-05-01T09:00:10.027Z,368.00
2023-05-01T09:01:10.107Z,369.00
2023-05-01T09:02:10.344Z,368.00
2023-05-01T09:03:10.267Z,369.00
2023-05-01T09:04:10.318Z,366.00
2023-05-01T09:05:10.338Z,366.00
2023-05-01T09:06:10.438Z,366.00
2023-05-01T09:07:10.494Z,365.00
2023-05-01T09:08:10.493Z,367.00
2023-05-01T09:09:10.552Z,367.00
2023-05-01T09:10:10.606Z,368.00
2023-05-01T09:11:10.673Z,367.00
2023-05-01T09:12:10.754Z,369.00
2023-05-01T09:13:10.761Z,369.00
2023-05-01T09:14:10.822Z,372.00
2023-05-01T09:15:10.907Z,371.00
2023-05-01T09:16:11.002Z,368.00
2023-05-01T09:17:10.926Z,368.00
2023-05-01T09:18:10.992Z,367.00
2023-05-01T09:19:11.013Z,367.00
2023-05-01T09:20:11.045Z,367.00
2023-05-01T09:21:11.100Z,367.00
2023-05-01T09:22:11.127Z,368.00
2023-05-01T09:23:11.165Z,368.00
2023-05-01T09:24:11.190Z,369.00
2023-05-01T09:25:11.254Z,368.00
2023-05-01T09:26:11.254Z,371.00
2023-05-01T09:27:11.295Z,373.00
2023-05-01T09:28:11.338Z,373.00
2023-05-01T09:29:11.376Z,373.00
2023-05-01T09:30:11.394Z,373.00
2023-05-01T09:31:11.428Z,372.00
2023-05-01T09:32:11.483Z,374.00
2023-05-01T09:33:11.627Z,371.00
2023-05-01T09:34:11.548Z,369.00
2023-05-01T09:35:11.568Z,369.00
2023-05-01T09:36:11.590Z,368.00
2023-05-01T09:37:11.656Z,367.00
2023-05-01T09:38:11.648Z,367.00
2023-05-01T09:39:11.685Z,366.00
2023-05-01T09:40:11.842Z,365.00
2023-05-01T09:41:11.778Z,366.00
2023-05-01T09:42:11.778Z,367.00
2023-05-01T09:43:11.990Z,365.00
2023-05-01T09:44:11.862Z,367.00
2023-05-01T09:45:11.861Z,368.00
2023-05-01T09:46:11.987Z,370.00
2023-05-01T09:47:11.938Z,373.00
2023-05-01T09:48:12.028Z,373.00
2023-05-01T09:49:11.989Z,374.00
2023-05-01T09:50:11.992Z,373.00
2023-05-01T09:51:11.996Z,374.00
2023-05-01T09:52:12.024Z,374.00
2023-05-01T09:53:12.011Z,373.00
2023-05-01T09:54:11.986Z,371.00
2023-05-01T09:55:11.991Z,373.00
2023-05-01T09:56:12.036Z,375.00
2023-05-01T09:57:12.006Z,374.00
2023-05-01T09:58:12.066Z,374.00
2023-05-01T09:59:11.991Z,373.00
2023-05-01T10:00:11.986Z,373.00
2023-05-01T10:01:12.034Z,371.00
2023-05-01T10:02:12.038Z,373.00
2023-05-01T10:03:12.137Z,372.00
2023-05-01T10:04:11.986Z,371.00
2023-05-01T10:05:11.988Z,369.00
2023-05-01T10:06:12.010Z,369.00
2023-05-01T10:07:11.997Z,367.00
2023-05-01T10:08:12.002Z,365.00
2023-05-01T10:09:11.990Z,364.00
2023-05-01T10:10:11.987Z,364.00
2023-05-01T10:11:11.982Z,365.00
2023-05-01T10:12:11.963Z,367.00
2023-05-01T10:13:11.952Z,369.00
2023-05-01T10:14:11.941Z,371.00
2023-05-01T10:15:23.946Z,369.00
2023-05-01T10:16:13.082Z,368.00
2023-05-01T10:17:12.059Z,369.00
2023-05-01T10:18:11.970Z,372.00
2023-05-01T10:19:11.912Z,372.00
2023-05-01T10:20:11.917Z,371.00
2023-05-01T10:21:11.896Z,369.00
2023-05-01T10:22:11.895Z,368.00
2023-05-01T10:23:11.895Z,366.00
2023-05-01T10:24:12.003Z,366.00
2023-05-01T10:25:11.910Z,366.00
2023-05-01T10:26:11.881Z,366.00
2023-05-01T10:27:11.892Z,367.00
2023-05-01T10:28:11.927Z,365.00
2023-05-01T10:29:11.899Z,365.00
2023-05-01T10:30:11.898Z,365.00
2023-05-01T10:31:11.936Z,364.00
2023-05-01T10:32:11.885Z,367.00
2023-05-01T10:33:11.919Z,367.00
2023-05-01T10:34:11.918Z,368.00
2023-05-01T10:35:11.907Z,369.00
2023-05-01T10:36:11.883Z,374.00
2023-05-01T10:37:11.914Z,375.00
2023-05-01T10:38:11.905Z,374.00
2023-05-01T10:39:11.892Z,374.00
2023-05-01T10:40:11.903Z,372.00
2023-05-01T10:41:11.909Z,370.00
2023-05-01T10:42:11.913Z,370.00
2023-05-01T10:43:11.939Z,370.00
2023-05-01T10:44:11.890Z,371.00
2023-05-01T10:45:11.899Z,372.00
2023-05-01T10:46:11.905Z,371.00
2023-05-01T10:47:11.880Z,369.00
2023-05-01T10:48:11.889Z,369.00
2023-05-01T10:49:11.884Z,369.00
2023-05-01T10:50:11.883Z,367.00
2023-05-01T10:51:11.888Z,365.00
2023-05-01T10:52:11.895Z,363.00
2023-05-01T10:53:11.946Z,364.00
2023-05-01T10:54:11.883Z,364.00
2023-05-01T10:55:11.894Z,364.00
2023-05-01T10:56:11.901Z,364.00
2023-05-01T10:57:11.887Z,365.00
2023-05-01T10:58:11.915Z,366.00
2023-05-01T10:59:11.887Z,366.00
2023-05-01T11:00:11.899Z,368.00
2023-05-01T11:01:11.960Z,368.00
2023-05-01T11:02:11.973Z,369.00
2023-05-01T11:03:12.014Z,369.00
2023-05-01T11:04:12.080Z,366.00
2023-05-01T11:05:12.131Z,367.00
2023-05-01T11:06:12.247Z,368.00
2023-05-01T11:07:12.173Z,366.00
2023-05-01T11:08:12.162Z,366.00
2023-05-01T11:09:12.204Z,366.00
2023-05-01T11:10:12.303Z,367.00
2023-05-01T11:11:12.295Z,367.00
2023-05-01T11:12:12.369Z,368.00
2023-05-01T11:13:12.402Z,369.00
2023-05-01T11:14:12.429Z,370.00
2023-05-01T11:15:12.473Z,371.00
2023-05-01T11:16:12.608Z,372.00
2023-05-01T11:17:12.551Z,370.00
2023-05-01T11:18:12.628Z,371.00
2023-05-01T11:19:12.708Z,372.00
2023-05-01T11:20:12.775Z,370.00
2023-05-01T11:21:12.860Z,368.00
2023-05-01T11:22:12.938Z,370.00
2023-05-01T11:23:13.012Z,368.00
2023-05-01T11:24:13.114Z,368.00
2023-05-01T11:25:13.078Z,366.00
2023-05-01T11:26:13.084Z,365.00
2023-05-01T11:27:13.087Z,366.00
2023-05-01T11:28:13.094Z,366.00
2023-05-01T11:29:13.103Z,367.00
2023-05-01T11:30:13.226Z,367.00
2023-05-01T11:31:13.114Z,367.00
2023-05-01T11:32:13.143Z,368.00
2023-05-01T11:33:13.098Z,370.00
2023-05-01T11:34:13.069Z,369.00
2023-05-01T11:35:13.099Z,370.00
2023-05-01T11:36:13.091Z,370.00
2023-05-01T11:37:13.124Z,371.00
2023-05-01T11:38:13.171Z,373.00
2023-05-01T11:39:13.258Z,372.00
2023-05-01T11:40:13.277Z,370.00
2023-05-01T11:41:13.284Z,370.00
2023-05-01T11:42:13.301Z,369.00
2023-05-01T11:43:13.306Z,370.00
2023-05-01T11:44:13.278Z,368.00
2023-05-01T11:45:13.335Z,368.00
2023-05-01T11:46:13.318Z,370.00
2023-05-01T11:47:13.255Z,370.00
2023-05-01T11:48:13.339Z,371.00
2023-05-01T11:49:13.282Z,373.00
2023-05-01T11:50:13.323Z,371.00
2023-05-01T11:51:13.295Z,370.00
2023-05-01T11:52:13.254Z,369.00
2023-05-01T11:53:13.291Z,369.00
2023-05-01T11:54:15.202Z,369.00
2023-05-01T11:55:13.482Z,369.00
2023-05-01T11:56:25.343Z,368.00
2023-05-01T11:57:14.515Z,368.00
2023-05-01T11:58:13.513Z,367.00
2023-05-01T11:59:13.518Z,366.00
2023-05-01T12:00:13.561Z,364.00
2023-05-01T12:01:13.488Z,365.00
2023-05-01T12:02:13.545Z,365.00
2023-05-01T12:03:14.052Z,363.00
2023-05-01T12:04:13.549Z,362.00
2023-05-01T12:05:13.498Z,364.00
2023-05-01T12:06:13.555Z,364.00
2023-05-01T12:07:13.556Z,365.00
2023-05-01T12:08:13.578Z,366.00
2023-05-01T12:09:13.641Z,366.00
2023-05-01T12:10:13.681Z,365.00
2023-05-01T12:11:13.731Z,365.00
2023-05-01T12:12:13.772Z,364.00
2023-05-01T12:13:13.846Z,365.00
2023-05-01T12:14:13.843Z,366.00
2023-05-01T12:15:13.916Z,365.00
2023-05-01T12:16:13.953Z,365.00
2023-05-01T12:17:14.040Z,364.00
2023-05-01T12:18:14.234Z,366.00
2023-05-01T12:19:14.104Z,367.00
2023-05-01T12:20:14.125Z,367.00
2023-05-01T12:21:14.190Z,366.00
2023-05-01T12:22:14.247Z,367.00
2023-05-01T12:23:14.268Z,368.00
2023-05-01T12:24:14.282Z,367.00
2023-05-01T12:25:14.324Z,370.00
2023-05-01T12:26:14.376Z,371.00
2023-05-01T12:27:14.406Z,372.00
2023-05-01T12:28:14.480Z,371.00
2023-05-01T12:29:14.546Z,372.00